HS Bizet — A8MI3 — position and weather

sailwx.info

Track history (hours):
 
Tides and Currents Weather Stations Pressure Air Temp Water Temp Dewpoint Dewpoint Depression Visibility Wind Speed Wind Dir Waves Ship Positions

HS Bizet

Last reported at 2016-Jul-25 08:33 UTC. Time now 2016-Jul-29 14:07 UTC.
Position S 36°19' E 174°59'.

Length 246 m; draft 8.6 m.

Type: Ship (hazmat cat A). MMSI: 636091349.

Date/timePositionNaut miles runAvg speedWind from/ knotsBaromVisibWave heightAir tempDewpointWater temp
2016-Jul-25 08:33S 36°19' E 174°59'9 9.2
2016-Jul-25 07:33S 36°28' E 174°59'9 8.8
2016-Jul-25 06:32S 36°37' E 174°57'9 9.5
2016-Jul-25 05:33S 36°45' E 174°50'7 0.8
2016-Jul-24 21:11S 36°51' E 174°47'0 0.0
2016-Jul-24 18:04S 36°50' E 174°47'3 5.1
2016-Jul-24 17:33S 36°49' E 174°50'9 9.2
2016-Jul-24 16:34S 36°41' E 174°54'9 8.9
2016-Jul-24 15:33S 36°34' E 175°01'9 9.3
2016-Jul-24 14:34S 36°28' E 175°10'  
Track history (hours):
 
Tides and Currents Weather Stations Pressure Air Temp Water Temp Dewpoint Dewpoint Depression Visibility Wind Speed Wind Dir Waves Ship Positions

HS Bizet

Last reported at 2016-Jul-25 08:33 UTC. Time now 2016-Jul-29 14:07 UTC.
Position S 36°19' E 174°59'.

Length 246 m; draft 8.6 m.

Type: Ship (hazmat cat A). MMSI: 636091349.

Date/timePositionNaut miles runAvg speedWind from/ knotsBaromVisibWave heightAir tempDewpointWater temp
2016-Jul-25 08:33S 36°19' E 174°59'9 9.2
2016-Jul-25 07:33S 36°28' E 174°59'9 8.8
2016-Jul-25 06:32S 36°37' E 174°57'9 9.5
2016-Jul-25 05:33S 36°45' E 174°50'7 0.8
2016-Jul-24 21:11S 36°51' E 174°47'0 0.0
2016-Jul-24 18:04S 36°50' E 174°47'3 5.1
2016-Jul-24 17:33S 36°49' E 174°50'9 9.2
2016-Jul-24 16:34S 36°41' E 174°54'9 8.9
2016-Jul-24 15:33S 36°34' E 175°01'9 9.3
2016-Jul-24 14:34S 36°28' E 175°10'  

Dump ship's entire track history